createdAt,value
2016-06-24T00:00:11.047Z,0
2016-06-24T00:01:11.032Z,0
2016-06-24T00:02:09.241Z,0
2016-06-24T00:03:09.864Z,0
2016-06-24T00:04:09.861Z,0
2016-06-24T00:05:10.466Z,0
2016-06-24T00:06:11.090Z,0
2016-06-24T00:07:10.496Z,0
2016-06-24T00:08:09.910Z,0
2016-06-24T00:09:10.514Z,0
2016-06-24T00:10:11.159Z,0
2016-06-24T00:11:09.337Z,0
2016-06-24T00:12:09.945Z,0
2016-06-24T00:13:10.570Z,0
2016-06-24T00:14:10.594Z,0
2016-06-24T00:15:09.981Z,0
2016-06-24T00:16:09.429Z,0
2016-06-24T00:17:09.415Z,0
2016-06-24T00:18:09.433Z,0
2016-06-24T00:19:11.836Z,0
2016-06-24T00:20:10.058Z,0
2016-06-24T00:21:10.064Z,0
2016-06-24T00:22:09.462Z,0
2016-06-24T00:23:11.285Z,0
2016-06-24T00:24:10.680Z,0
2016-06-24T00:25:11.291Z,0
2016-06-24T00:26:10.114Z,0
2016-06-24T00:27:11.319Z,0
2016-06-24T00:28:11.324Z,0
2016-06-24T00:29:11.369Z,0
2016-06-24T00:30:10.167Z,0
2016-06-24T00:31:10.165Z,0
2016-06-24T00:32:11.436Z,0
2016-06-24T00:33:11.372Z,0
2016-06-24T00:34:11.414Z,0
2016-06-24T00:35:10.797Z,0
2016-06-24T00:36:09.626Z,0
2016-06-24T00:37:09.623Z,0
2016-06-24T00:38:10.235Z,0
2016-06-24T00:39:10.288Z,0
2016-06-24T00:40:11.469Z,0
2016-06-24T00:41:11.457Z,0
2016-06-24T00:42:10.873Z,0
2016-06-24T00:43:10.894Z,0
2016-06-24T00:44:10.891Z,0
2016-06-24T00:45:10.364Z,0
2016-06-24T00:46:12.119Z,0
2016-06-24T00:47:10.337Z,0
2016-06-24T00:48:12.140Z,0
2016-06-24T00:49:10.374Z,0
2016-06-24T00:50:11.576Z,0
2016-06-24T00:51:10.974Z,0
2016-06-24T00:52:11.008Z,0
2016-06-24T00:53:11.611Z,0
2016-06-24T00:54:10.394Z,0
2016-06-24T00:55:10.439Z,0
2016-06-24T00:56:11.027Z,0
2016-06-24T00:57:10.436Z,0
2016-06-24T00:58:11.049Z,0
2016-06-24T00:59:12.267Z,0
2016-06-24T01:00:09.901Z,0
2016-06-24T01:01:11.103Z,0
2016-06-24T01:02:11.716Z,0
2016-06-24T01:03:10.517Z,0
2016-06-24T01:04:11.142Z,0
2016-06-24T01:05:12.361Z,0
2016-06-24T01:06:10.539Z,0
2016-06-24T01:07:11.769Z,0
2016-06-24T01:08:11.769Z,0
2016-06-24T01:09:11.188Z,0
2016-06-24T01:10:10.611Z,0
2016-06-24T01:11:11.193Z,0
2016-06-24T01:12:11.229Z,0
2016-06-24T01:13:10.627Z,0
2016-06-24T01:14:10.637Z,0
2016-06-24T01:15:10.428Z,0
2016-06-24T01:16:11.275Z,0
2016-06-24T01:17:11.260Z,0
2016-06-24T01:18:11.283Z,0
2016-06-24T01:19:10.682Z,0
2016-06-24T01:20:11.895Z,0
2016-06-24T01:21:12.510Z,0
2016-06-24T01:22:11.337Z,0
2016-06-24T01:23:10.130Z,0
2016-06-24T01:24:11.948Z,0
2016-06-24T01:25:11.350Z,0
2016-06-24T01:26:11.615Z,0
2016-06-24T01:27:11.576Z,0
2016-06-24T01:28:10.803Z,0
2016-06-24T01:29:11.390Z,0
2016-06-24T01:30:11.117Z,0
2016-06-24T01:31:11.431Z,0
2016-06-24T01:32:11.442Z,0
2016-06-24T01:33:10.979Z,0
2016-06-24T01:34:10.864Z,0
2016-06-24T01:35:10.859Z,0
2016-06-24T01:36:11.483Z,0
2016-06-24T01:37:11.649Z,0
2016-06-24T01:38:12.106Z,0
2016-06-24T01:39:10.913Z,0
2016-06-24T01:40:10.335Z,0
2016-06-24T01:41:11.687Z,0
2016-06-24T01:42:10.956Z,0
2016-06-24T01:43:12.164Z,0
2016-06-24T01:44:11.549Z,0
2016-06-24T01:45:11.604Z,0
2016-06-24T01:46:11.838Z,0
2016-06-24T01:47:11.626Z,0
2016-06-24T01:48:10.417Z,0
2016-06-24T01:49:11.026Z,0
2016-06-24T01:50:12.489Z,0
2016-06-24T01:51:11.626Z,0
2016-06-24T01:52:11.248Z,0
2016-06-24T01:53:11.746Z,0
2016-06-24T01:54:10.474Z,0
2016-06-24T01:55:12.439Z,0
2016-06-24T01:56:12.296Z,0
2016-06-24T01:57:12.357Z,0
2016-06-24T01:58:11.110Z,0
2016-06-24T01:59:11.761Z,0
2016-06-24T02:00:13.111Z,0
2016-06-24T02:01:12.346Z,0
2016-06-24T02:02:13.090Z,0
2016-06-24T02:03:12.032Z,0
2016-06-24T02:04:11.807Z,0
2016-06-24T02:05:11.819Z,0
2016-06-24T02:06:13.125Z,0
2016-06-24T02:07:12.509Z,0
2016-06-24T02:08:11.233Z,0
2016-06-24T02:09:12.099Z,0
2016-06-24T02:10:10.651Z,0
2016-06-24T02:11:12.494Z,0
2016-06-24T02:12:10.681Z,0
2016-06-24T02:13:11.907Z,0
2016-06-24T02:14:12.243Z,0
2016-06-24T02:15:11.301Z,0
2016-06-24T02:16:11.975Z,0
2016-06-24T02:17:11.338Z,0
2016-06-24T02:18:11.933Z,0
2016-06-24T02:19:12.651Z,0
2016-06-24T02:20:11.959Z,0
2016-06-24T02:21:11.356Z,0
2016-06-24T02:22:13.658Z,0
2016-06-24T02:23:11.995Z,0
2016-06-24T02:24:11.391Z,0
2016-06-24T02:25:12.006Z,0
2016-06-24T02:26:12.367Z,0
2016-06-24T02:27:11.433Z,0
2016-06-24T02:28:12.403Z,0
2016-06-24T02:29:12.668Z,0
2016-06-24T02:30:11.716Z,0
2016-06-24T02:31:12.977Z,0
2016-06-24T02:32:11.521Z,0
2016-06-24T02:33:12.169Z,0
2016-06-24T02:34:12.709Z,0
2016-06-24T02:35:11.532Z,0
2016-06-24T02:36:13.048Z,0
2016-06-24T02:37:12.257Z,0
2016-06-24T02:38:12.166Z,0
2016-06-24T02:39:12.770Z,0
2016-06-24T02:40:12.191Z,0
2016-06-24T02:41:13.479Z,0
2016-06-24T02:42:12.201Z,0
2016-06-24T02:43:12.825Z,0
2016-06-24T02:44:12.248Z,0
2016-06-24T02:45:11.866Z,0
2016-06-24T02:46:11.634Z,0
2016-06-24T02:47:12.251Z,0
2016-06-24T02:48:12.998Z,0
2016-06-24T02:49:11.661Z,0
2016-06-24T02:50:11.102Z,0
2016-06-24T02:51:12.894Z,0
2016-06-24T02:52:11.704Z,0
2016-06-24T02:53:12.320Z,0
2016-06-24T02:54:12.326Z,0
2016-06-24T02:55:12.944Z,0
2016-06-24T02:56:13.555Z,0
2016-06-24T02:57:12.365Z,0
2016-06-24T02:58:12.374Z,0
2016-06-24T02:59:12.994Z,0
2016-06-24T03:00:13.579Z,0
2016-06-24T03:01:12.999Z,0
2016-06-24T03:02:12.410Z,0
2016-06-24T03:03:13.030Z,0
2016-06-24T03:04:12.435Z,0
2016-06-24T03:05:13.674Z,0
2016-06-24T03:06:12.455Z,0
2016-06-24T03:07:13.070Z,0
2016-06-24T03:08:13.083Z,0
2016-06-24T03:09:11.878Z,0
2016-06-24T03:10:11.897Z,0
2016-06-24T03:11:11.911Z,0
2016-06-24T03:12:13.725Z,0
2016-06-24T03:13:12.167Z,0
2016-06-24T03:14:13.144Z,0
2016-06-24T03:15:12.557Z,0
2016-06-24T03:16:12.007Z,0
2016-06-24T03:17:12.554Z,0
2016-06-24T03:18:12.594Z,0
2016-06-24T03:19:13.223Z,0
2016-06-24T03:20:12.614Z,0
2016-06-24T03:21:13.216Z,0
2016-06-24T03:22:12.658Z,0
2016-06-24T03:23:13.846Z,0
2016-06-24T03:24:11.468Z,0
2016-06-24T03:25:12.059Z,0
2016-06-24T03:26:12.673Z,0
2016-06-24T03:27:12.681Z,0
2016-06-24T03:28:12.087Z,0
2016-06-24T03:29:12.706Z,0
2016-06-24T03:30:12.128Z,0
2016-06-24T03:31:12.727Z,0
2016-06-24T03:32:12.178Z,0
2016-06-24T03:33:12.743Z,0
2016-06-24T03:34:12.771Z,0
2016-06-24T03:35:12.174Z,0
2016-06-24T03:36:12.169Z,0
2016-06-24T03:37:13.405Z,0
2016-06-24T03:38:12.835Z,0
2016-06-24T03:39:12.813Z,0
2016-06-24T03:40:13.438Z,0
2016-06-24T03:41:12.874Z,0
2016-06-24T03:42:12.834Z,0
2016-06-24T03:43:12.274Z,0
2016-06-24T03:44:14.054Z,0
2016-06-24T03:45:13.724Z,0
2016-06-24T03:46:13.476Z,0
2016-06-24T03:47:14.120Z,0
2016-06-24T03:48:12.306Z,5
2016-06-24T03:49:12.907Z,5
2016-06-24T03:50:12.323Z,5
2016-06-24T03:51:13.562Z,5
2016-06-24T03:52:13.553Z,5
2016-06-24T03:53:14.156Z,5
2016-06-24T03:54:12.989Z,5
2016-06-24T03:55:12.989Z,5
2016-06-24T03:56:13.010Z,5
2016-06-24T03:57:14.202Z,5
2016-06-24T03:58:11.837Z,5
2016-06-24T03:59:14.229Z,5
2016-06-24T04:00:13.663Z,5
2016-06-24T04:01:12.471Z,5
2016-06-24T04:02:13.664Z,5
2016-06-24T04:03:14.287Z,5
2016-06-24T04:04:13.088Z,10
2016-06-24T04:05:13.702Z,10
2016-06-24T04:06:12.493Z,10
2016-06-24T04:07:13.110Z,10
2016-06-24T04:08:13.139Z,10
2016-06-24T04:09:13.130Z,10
2016-06-24T04:10:13.161Z,10
2016-06-24T04:11:14.380Z,10
2016-06-24T04:12:13.766Z,10
2016-06-24T04:13:12.587Z,10
2016-06-24T04:14:13.789Z,10
2016-06-24T04:15:12.007Z,10
2016-06-24T04:16:13.834Z,10
2016-06-24T04:17:12.615Z,10
2016-06-24T04:18:13.843Z,10
2016-06-24T04:19:13.863Z,15
2016-06-24T04:20:13.876Z,15
2016-06-24T04:21:13.262Z,15
2016-06-24T04:22:13.291Z,15
2016-06-24T04:23:14.500Z,15
2016-06-24T04:24:13.307Z,15
2016-06-24T04:25:13.314Z,15
2016-06-24T04:26:13.327Z,15
2016-06-24T04:27:12.731Z,15
2016-06-24T04:28:13.325Z,15
2016-06-24T04:29:12.748Z,15
2016-06-24T04:30:14.589Z,15
2016-06-24T04:31:12.164Z,15
2016-06-24T04:32:13.986Z,15
2016-06-24T04:33:12.814Z,15
2016-06-24T04:34:14.020Z,15
2016-06-24T04:35:13.997Z,15
2016-06-24T04:36:14.638Z,15
2016-06-24T04:37:14.251Z,15
2016-06-24T04:38:13.454Z,15
2016-06-24T04:39:12.852Z,15
2016-06-24T04:40:13.454Z,15
2016-06-24T04:41:13.478Z,15
2016-06-24T04:42:13.484Z,15
2016-06-24T04:43:12.891Z,15
2016-06-24T04:44:13.534Z,15
2016-06-24T04:45:13.514Z,15
2016-06-24T04:46:12.938Z,15
2016-06-24T04:47:14.162Z,15
2016-06-24T04:48:13.539Z,15
2016-06-24T04:49:14.754Z,15
2016-06-24T04:50:12.384Z,15
2016-06-24T04:51:13.586Z,15
2016-06-24T04:52:13.593Z,15
2016-06-24T04:53:14.797Z,15
2016-06-24T04:54:13.620Z,15
2016-06-24T04:55:13.634Z,15
2016-06-24T04:56:14.229Z,15
2016-06-24T04:57:14.240Z,15
2016-06-24T04:58:13.668Z,15
2016-06-24T04:59:13.676Z,15
2016-06-24T05:00:14.287Z,15
2016-06-24T05:01:13.697Z,15
2016-06-24T05:02:14.912Z,15
2016-06-24T05:03:13.727Z,15
2016-06-24T05:04:14.923Z,15
2016-06-24T05:05:13.725Z,15
2016-06-24T05:06:14.941Z,15
2016-06-24T05:07:14.940Z,15
2016-06-24T05:08:13.770Z,15
2016-06-24T05:09:13.768Z,15
2016-06-24T05:10:13.183Z,15
2016-06-24T05:11:13.223Z,15
2016-06-24T05:12:14.394Z,15
2016-06-24T05:13:15.008Z,15
2016-06-24T05:14:13.820Z,15
2016-06-24T05:15:13.841Z,15
2016-06-24T05:16:14.446Z,15
2016-06-24T05:17:14.479Z,15
2016-06-24T05:18:13.283Z,15
2016-06-24T05:19:13.888Z,15
2016-06-24T05:20:13.893Z,15
2016-06-24T05:21:15.150Z,15
2016-06-24T05:22:13.895Z,15
2016-06-24T05:23:13.914Z,15
2016-06-24T05:24:15.148Z,15
2016-06-24T05:25:13.973Z,15
2016-06-24T05:26:13.383Z,15
2016-06-24T05:27:12.773Z,15
2016-06-24T05:28:15.193Z,15
2016-06-24T05:29:14.586Z,15
2016-06-24T05:30:14.588Z,15
2016-06-24T05:31:12.810Z,15
2016-06-24T05:32:12.812Z,15
2016-06-24T05:33:14.627Z,15
2016-06-24T05:34:14.642Z,15
2016-06-24T05:35:14.053Z,15
2016-06-24T05:36:15.267Z,15
2016-06-24T05:37:13.524Z,15
2016-06-24T05:38:14.698Z,15
2016-06-24T05:39:14.096Z,15
2016-06-24T05:40:14.713Z,15
2016-06-24T05:41:14.120Z,15
2016-06-24T05:42:14.116Z,15
2016-06-24T05:43:13.574Z,15
2016-06-24T05:44:14.142Z,15
2016-06-24T05:45:14.811Z,15
2016-06-24T05:46:14.767Z,15
2016-06-24T05:47:14.195Z,15
2016-06-24T05:48:13.618Z,15
2016-06-24T05:49:14.211Z,15
2016-06-24T05:50:14.823Z,15
2016-06-24T05:51:14.844Z,15
2016-06-24T05:52:13.051Z,15
2016-06-24T05:53:14.264Z,15
2016-06-24T05:54:13.696Z,15
2016-06-24T05:55:14.303Z,15
2016-06-24T05:56:14.876Z,15
2016-06-24T05:57:13.695Z,15
2016-06-24T05:58:14.902Z,15
2016-06-24T05:59:14.312Z,15
2016-06-24T06:00:14.958Z,15
2016-06-24T06:01:13.744Z,15
2016-06-24T06:02:14.946Z,15
2016-06-24T06:03:14.957Z,20
2016-06-24T06:04:14.376Z,20
2016-06-24T06:05:13.786Z,20
2016-06-24T06:06:13.801Z,20
2016-06-24T06:07:14.411Z,15
2016-06-24T06:08:14.423Z,15
2016-06-24T06:09:13.259Z,20
2016-06-24T06:10:15.038Z,20
2016-06-24T06:11:15.039Z,15
2016-06-24T06:12:15.055Z,15
2016-06-24T06:13:14.711Z,15
2016-06-24T06:14:15.089Z,15
2016-06-24T06:15:15.069Z,15
2016-06-24T06:16:15.141Z,15
2016-06-24T06:17:13.339Z,15
2016-06-24T06:18:15.719Z,15
2016-06-24T06:19:14.553Z,15
2016-06-24T06:20:15.369Z,15
2016-06-24T06:21:14.554Z,15
2016-06-24T06:22:14.548Z,15
2016-06-24T06:23:13.405Z,15
2016-06-24T06:24:15.191Z,15
2016-06-24T06:25:14.601Z,15
2016-06-24T06:26:14.622Z,15
2016-06-24T06:27:14.687Z,15
2016-06-24T06:28:14.624Z,15
2016-06-24T06:29:14.047Z,15
2016-06-24T06:30:14.648Z,15
2016-06-24T06:31:15.863Z,15
2016-06-24T06:32:14.681Z,15
2016-06-24T06:33:13.485Z,15
2016-06-24T06:34:14.702Z,15
2016-06-24T06:35:15.902Z,15
2016-06-24T06:36:15.333Z,15
2016-06-24T06:37:14.125Z,15
2016-06-24T06:38:14.177Z,15
2016-06-24T06:39:15.965Z,15
2016-06-24T06:40:14.178Z,15
2016-06-24T06:41:14.178Z,15
2016-06-24T06:42:15.982Z,15
2016-06-24T06:43:14.796Z,15
2016-06-24T06:44:14.218Z,15
2016-06-24T06:45:15.422Z,15
2016-06-24T06:46:15.439Z,15
2016-06-24T06:47:14.252Z,15
2016-06-24T06:48:15.439Z,15
2016-06-24T06:49:14.274Z,15
2016-06-24T06:50:14.277Z,15
2016-06-24T06:51:16.077Z,15
2016-06-24T06:52:14.895Z,20
2016-06-24T06:53:15.501Z,20
2016-06-24T06:54:14.321Z,20
2016-06-24T06:55:13.756Z,20
2016-06-24T06:56:15.358Z,20
2016-06-24T06:57:15.574Z,20
2016-06-24T06:58:16.195Z,20
2016-06-24T06:59:15.590Z,20
2016-06-24T07:00:15.007Z,20
2016-06-24T07:01:13.800Z,20
2016-06-24T07:02:15.625Z,20
2016-06-24T07:03:15.039Z,20
2016-06-24T07:04:15.626Z,20
2016-06-24T07:05:13.849Z,20
2016-06-24T07:06:15.052Z,20
2016-06-24T07:07:14.484Z,20
2016-06-24T07:08:15.716Z,20
2016-06-24T07:09:15.148Z,20
2016-06-24T07:10:15.091Z,20
2016-06-24T07:11:14.545Z,20
2016-06-24T07:12:15.718Z,20
2016-06-24T07:13:16.340Z,20
2016-06-24T07:14:14.557Z,20
2016-06-24T07:15:15.167Z,20
2016-06-24T07:16:15.317Z,20
2016-06-24T07:17:15.806Z,20
2016-06-24T07:18:16.399Z,20
2016-06-24T07:19:14.602Z,20
2016-06-24T07:20:14.613Z,20
2016-06-24T07:21:15.236Z,20
2016-06-24T07:22:14.026Z,20
2016-06-24T07:23:16.798Z,20
2016-06-24T07:24:15.870Z,25
2016-06-24T07:25:15.873Z,25
2016-06-24T07:27:15.908Z,25
2016-06-24T07:28:15.937Z,25
2016-06-24T07:29:15.934Z,25
2016-06-24T07:30:14.722Z,25
2016-06-24T07:31:16.521Z,25
2016-06-24T07:32:15.342Z,25
2016-06-24T07:33:14.777Z,25
2016-06-24T07:34:15.971Z,25
2016-06-24T07:35:15.386Z,25
2016-06-24T07:36:15.404Z,25
2016-06-24T07:37:14.799Z,25
2016-06-24T07:38:16.008Z,25
2016-06-24T07:39:14.826Z,25
2016-06-24T07:40:14.839Z,25
2016-06-24T07:41:16.050Z,25
2016-06-24T07:42:15.430Z,25
2016-06-24T07:43:14.285Z,25
2016-06-24T07:44:16.114Z,25
2016-06-24T07:45:16.679Z,25
2016-06-24T07:46:16.111Z,25
2016-06-24T07:47:16.131Z,25
2016-06-24T07:48:16.153Z,25
2016-06-24T07:49:16.145Z,25
2016-06-24T07:50:16.158Z,25
2016-06-24T07:51:15.570Z,30
2016-06-24T07:52:14.969Z,30
2016-06-24T07:53:16.782Z,30
2016-06-24T07:54:15.025Z,30
2016-06-24T07:55:15.619Z,30
2016-06-24T07:56:16.801Z,30
2016-06-24T07:57:15.659Z,30
2016-06-24T07:58:15.673Z,30
2016-06-24T07:59:15.042Z,30
2016-06-24T08:00:16.279Z,30
2016-06-24T08:01:15.689Z,30
2016-06-24T08:02:16.286Z,30
2016-06-24T08:03:16.894Z,30
2016-06-24T08:04:14.502Z,30
2016-06-24T08:05:15.965Z,30
2016-06-24T08:06:15.717Z,30
2016-06-24T08:07:15.735Z,30
2016-06-24T08:08:16.342Z,30
2016-06-24T08:09:14.542Z,30
2016-06-24T08:10:16.773Z,30
2016-06-24T08:11:15.196Z,30
2016-06-24T08:12:16.427Z,30
2016-06-24T08:13:15.783Z,30
2016-06-24T08:14:16.405Z,30
2016-06-24T08:15:15.832Z,30
2016-06-24T08:16:15.246Z,30
2016-06-24T08:17:15.904Z,30
2016-06-24T08:18:17.109Z,30
2016-06-24T08:19:15.902Z,30
2016-06-24T08:20:17.099Z,30
2016-06-24T08:21:16.489Z,30
2016-06-24T08:22:16.534Z,30
2016-06-24T08:23:16.942Z,30
2016-06-24T08:24:15.639Z,30
2016-06-24T08:25:17.146Z,30
2016-06-24T08:26:15.962Z,35
2016-06-24T08:27:15.962Z,35
2016-06-24T08:28:15.390Z,35
2016-06-24T08:29:15.386Z,35
2016-06-24T08:30:15.992Z,35
2016-06-24T08:31:15.425Z,35
2016-06-24T08:32:16.010Z,35
2016-06-24T08:33:14.823Z,35
2016-06-24T08:34:16.058Z,35
2016-06-24T08:35:15.497Z,35
2016-06-24T08:36:15.461Z,35
2016-06-24T08:37:14.899Z,35
2016-06-24T08:38:16.098Z,35
2016-06-24T08:39:15.489Z,35
2016-06-24T08:40:16.685Z,35
2016-06-24T08:41:15.514Z,35
2016-06-24T08:42:16.129Z,35
2016-06-24T08:43:17.346Z,35
2016-06-24T08:44:16.737Z,35
2016-06-24T08:45:16.175Z,35
2016-06-24T08:46:15.588Z,35
2016-06-24T08:47:14.991Z,35
2016-06-24T08:48:16.206Z,35
2016-06-24T08:49:16.217Z,40
2016-06-24T08:50:15.631Z,40
2016-06-24T08:51:17.448Z,40
2016-06-24T08:52:16.249Z,40
2016-06-24T08:53:16.868Z,40
2016-06-24T08:54:15.670Z,40
2016-06-24T08:55:17.494Z,40
2016-06-24T08:56:16.310Z,40
2016-06-24T08:57:16.313Z,40
2016-06-24T08:58:15.713Z,40
2016-06-24T08:59:16.935Z,40
2016-06-24T09:00:16.341Z,40
2016-06-24T09:01:15.146Z,40
2016-06-24T09:02:15.770Z,40
2016-06-24T09:03:16.390Z,40
2016-06-24T09:04:16.373Z,40
2016-06-24T09:05:17.026Z,40
2016-06-24T09:06:16.426Z,40
2016-06-24T09:07:17.017Z,40
2016-06-24T09:08:17.026Z,40
2016-06-24T09:09:15.266Z,40
2016-06-24T09:10:16.454Z,40
2016-06-24T09:11:17.107Z,40
2016-06-24T09:12:16.478Z,40
2016-06-24T09:13:15.902Z,40
2016-06-24T09:14:15.316Z,40
2016-06-24T09:15:16.527Z,40
2016-06-24T09:16:15.337Z,40
2016-06-24T09:17:15.935Z,45
2016-06-24T09:18:16.547Z,45
2016-06-24T09:19:17.159Z,45
2016-06-24T09:20:15.378Z,45
2016-06-24T09:21:16.594Z,45
2016-06-24T09:22:16.600Z,45
2016-06-24T09:23:17.210Z,45
2016-06-24T09:24:16.625Z,45
2016-06-24T09:25:17.249Z,45
2016-06-24T09:26:16.063Z,45
2016-06-24T09:27:16.062Z,45
2016-06-24T09:28:17.859Z,45
2016-06-24T09:29:17.286Z,45
2016-06-24T09:30:16.691Z,45
2016-06-24T09:31:16.094Z,45
2016-06-24T09:32:17.299Z,45
2016-06-24T09:33:16.147Z,45
2016-06-24T09:34:16.749Z,45
2016-06-24T09:35:17.931Z,45
2016-06-24T09:36:16.757Z,45
2016-06-24T09:37:15.572Z,45
2016-06-24T09:38:16.186Z,45
2016-06-24T09:39:15.610Z,45
2016-06-24T09:40:17.984Z,45
2016-06-24T09:41:16.222Z,45
2016-06-24T09:42:16.235Z,45
2016-06-24T09:43:16.840Z,50
2016-06-24T09:44:15.653Z,50
2016-06-24T09:45:16.282Z,50
2016-06-24T09:46:15.683Z,50
2016-06-24T09:47:17.513Z,50
2016-06-24T09:48:16.900Z,50
2016-06-24T09:49:17.513Z,50
2016-06-24T09:50:16.935Z,50
2016-06-24T09:51:16.947Z,50
2016-06-24T09:52:16.954Z,50
2016-06-24T09:53:17.558Z,50
2016-06-24T09:54:16.963Z,50
2016-06-24T09:55:16.374Z,50
2016-06-24T09:56:16.371Z,50
2016-06-24T09:57:15.802Z,50
2016-06-24T09:58:17.005Z,50
2016-06-24T09:59:17.015Z,50
2016-06-24T10:00:17.635Z,50
2016-06-24T10:01:16.446Z,50
2016-06-24T10:02:18.258Z,50
2016-06-24T10:03:17.080Z,50
2016-06-24T10:04:17.756Z,50
2016-06-24T10:05:16.505Z,50
2016-06-24T10:06:17.098Z,50
2016-06-24T10:07:16.506Z,50
2016-06-24T10:08:17.126Z,50
2016-06-24T10:09:18.158Z,50
2016-06-24T10:10:17.169Z,50
2016-06-24T10:11:16.560Z,50
2016-06-24T10:12:17.079Z,55
2016-06-24T10:13:16.607Z,50
2016-06-24T10:14:16.601Z,50
2016-06-24T10:15:17.230Z,50
2016-06-24T10:16:16.031Z,50
2016-06-24T10:17:16.677Z,50
2016-06-24T10:18:17.231Z,55
2016-06-24T10:19:17.267Z,50
2016-06-24T10:20:17.270Z,55
2016-06-24T10:21:17.864Z,55
2016-06-24T10:22:17.892Z,55
2016-06-24T10:23:17.924Z,55
2016-06-24T10:24:18.505Z,55
2016-06-24T10:25:17.358Z,55
2016-06-24T10:26:16.750Z,55
2016-06-24T10:27:17.389Z,55
2016-06-24T10:28:16.782Z,45
2016-06-24T10:29:17.982Z,45
2016-06-24T10:30:16.778Z,45
2016-06-24T10:31:18.982Z,45
2016-06-24T10:32:18.608Z,45
2016-06-24T10:33:18.031Z,45
2016-06-24T10:34:17.474Z,45
2016-06-24T10:35:17.469Z,45
2016-06-24T10:36:17.465Z,45
2016-06-24T10:37:18.065Z,45
2016-06-24T10:38:17.498Z,45
2016-06-24T10:39:16.327Z,45
2016-06-24T10:40:17.523Z,45
2016-06-24T10:41:16.332Z,45
2016-06-24T10:42:17.543Z,45
2016-06-24T10:43:16.934Z,50
2016-06-24T10:44:16.948Z,55
2016-06-24T10:45:16.992Z,55
2016-06-24T10:46:18.172Z,55
2016-06-24T10:47:17.602Z,55
2016-06-24T10:48:18.836Z,55
2016-06-24T10:49:18.878Z,55
2016-06-24T10:50:17.032Z,55
2016-06-24T10:51:18.227Z,55
2016-06-24T10:52:17.643Z,55
2016-06-24T10:53:17.653Z,55
2016-06-24T10:54:17.673Z,55
2016-06-24T10:55:17.708Z,55
2016-06-24T10:56:17.097Z,60
2016-06-24T10:57:16.533Z,60
2016-06-24T10:58:18.350Z,60
2016-06-24T10:59:17.134Z,55
2016-06-24T11:00:17.145Z,55
2016-06-24T11:01:16.558Z,55
2016-06-24T11:02:17.759Z,55
2016-06-24T11:03:17.766Z,55
2016-06-24T11:04:16.602Z,60
2016-06-24T11:05:18.397Z,50
2016-06-24T11:06:18.400Z,50
2016-06-24T11:07:17.226Z,50
2016-06-24T11:08:17.855Z,50
2016-06-24T11:09:18.452Z,50
2016-06-24T11:10:17.255Z,50
2016-06-24T11:11:16.673Z,50
2016-06-24T11:12:17.875Z,50
2016-06-24T11:13:17.297Z,50
2016-06-24T11:14:17.314Z,50
2016-06-24T11:15:19.113Z,50
2016-06-24T11:16:19.123Z,50
2016-06-24T11:17:17.539Z,50
2016-06-24T11:18:17.947Z,50
2016-06-24T11:19:18.548Z,50
2016-06-24T11:20:17.982Z,50
2016-06-24T11:21:18.014Z,50
2016-06-24T11:22:17.998Z,50
2016-06-24T11:23:18.651Z,50
2016-06-24T11:24:17.432Z,50
2016-06-24T11:25:18.663Z,50
2016-06-24T11:26:18.052Z,55
2016-06-24T11:27:18.653Z,55
2016-06-24T11:28:18.636Z,55
2016-06-24T11:29:18.669Z,55
2016-06-24T11:30:17.475Z,55
2016-06-24T11:31:18.104Z,55
2016-06-24T11:32:17.553Z,55
2016-06-24T11:33:18.130Z,55
2016-06-24T11:34:17.554Z,50
2016-06-24T11:35:19.340Z,50
2016-06-24T11:36:18.164Z,50
2016-06-24T11:37:18.173Z,50
2016-06-24T11:38:18.810Z,50
2016-06-24T11:39:19.203Z,50
2016-06-24T11:40:19.110Z,50
2016-06-24T11:41:19.203Z,50
2016-06-24T11:42:17.763Z,50
2016-06-24T11:43:19.671Z,50
2016-06-24T11:44:19.932Z,55
2016-06-24T11:45:20.096Z,60
2016-06-24T11:46:18.666Z,60
2016-06-24T11:47:19.063Z,60
2016-06-24T11:48:17.102Z,60
2016-06-24T11:49:18.330Z,60
2016-06-24T11:50:17.706Z,60
2016-06-24T11:51:18.921Z,60
2016-06-24T11:52:18.350Z,60
2016-06-24T11:53:18.942Z,60
2016-06-24T11:54:17.165Z,60
2016-06-24T11:55:17.797Z,60
2016-06-24T11:56:17.209Z,60
2016-06-24T11:57:19.018Z,60
2016-06-24T11:58:18.409Z,60
2016-06-24T11:59:18.448Z,60
2016-06-24T12:00:18.471Z,60
2016-06-24T12:01:18.802Z,60
2016-06-24T12:02:18.466Z,60
2016-06-24T12:03:19.075Z,60
2016-06-24T12:04:17.902Z,60
2016-06-24T12:05:17.921Z,60
2016-06-24T12:06:17.925Z,60
2016-06-24T12:07:18.529Z,60
2016-06-24T12:08:19.127Z,60
2016-06-24T12:09:18.599Z,60
2016-06-24T12:10:19.765Z,60
2016-06-24T12:11:19.164Z,60
2016-06-24T12:12:19.196Z,60
2016-06-24T12:13:18.598Z,60
2016-06-24T12:14:17.401Z,60
2016-06-24T12:15:18.637Z,60
2016-06-24T12:16:18.038Z,60
2016-06-24T12:17:18.663Z,60
2016-06-24T12:18:18.069Z,60
2016-06-24T12:19:19.282Z,60
2016-06-24T12:20:18.692Z,60
2016-06-24T12:21:19.286Z,60
2016-06-24T12:22:18.726Z,60
2016-06-24T12:23:18.110Z,60
2016-06-24T12:24:18.764Z,60
2016-06-24T12:25:18.155Z,60
2016-06-24T12:26:18.201Z,60
2016-06-24T12:27:18.184Z,60
2016-06-24T12:28:17.563Z,60
2016-06-24T12:29:18.195Z,60
2016-06-24T12:30:18.805Z,60
2016-06-24T12:31:18.230Z,60
2016-06-24T12:32:18.215Z,60
2016-06-24T12:33:19.449Z,60
2016-06-24T12:34:18.861Z,60
2016-06-24T12:35:19.475Z,60
2016-06-24T12:36:20.078Z,60
2016-06-24T12:37:18.301Z,55
2016-06-24T12:38:18.905Z,55
2016-06-24T12:39:20.112Z,55
2016-06-24T12:40:18.915Z,55
2016-06-24T12:41:18.333Z,55
2016-06-24T12:42:19.559Z,55
2016-06-24T12:43:18.360Z,55
2016-06-24T12:44:17.779Z,55
2016-06-24T12:45:19.002Z,55
2016-06-24T12:46:20.241Z,55
2016-06-24T12:47:19.011Z,55
2016-06-24T12:48:18.429Z,55
2016-06-24T12:49:19.046Z,55
2016-06-24T12:50:19.653Z,55
2016-06-24T12:51:18.497Z,55
2016-06-24T12:52:19.680Z,55
2016-06-24T12:53:18.471Z,55
2016-06-24T12:54:19.713Z,55
2016-06-24T12:55:19.144Z,55
2016-06-24T12:56:18.534Z,55
2016-06-24T12:57:20.351Z,55
2016-06-24T12:58:19.140Z,55
2016-06-24T12:59:19.771Z,55
2016-06-24T13:00:19.828Z,50
2016-06-24T13:01:17.984Z,50
2016-06-24T13:02:19.787Z,50
2016-06-24T13:03:19.815Z,50
2016-06-24T13:04:19.195Z,50
2016-06-24T13:05:19.228Z,50
2016-06-24T13:06:19.241Z,50
2016-06-24T13:07:19.853Z,55
2016-06-24T13:08:20.470Z,55
2016-06-24T13:09:19.272Z,50
2016-06-24T13:10:18.081Z,50
2016-06-24T13:11:18.131Z,50
2016-06-24T13:12:18.731Z,50
2016-06-24T13:13:19.924Z,50
2016-06-24T13:14:19.367Z,50
2016-06-24T13:15:19.366Z,50
2016-06-24T13:16:20.572Z,50
2016-06-24T13:17:18.847Z,50
2016-06-24T13:18:19.397Z,50
2016-06-24T13:19:18.212Z,50
2016-06-24T13:20:19.436Z,50
2016-06-24T13:21:20.033Z,50
2016-06-24T13:22:18.838Z,50
2016-06-24T13:23:19.444Z,50
2016-06-24T13:24:20.085Z,50
2016-06-24T13:25:18.877Z,50
2016-06-24T13:26:18.288Z,50
2016-06-24T13:27:20.128Z,50
2016-06-24T13:28:20.106Z,50
2016-06-24T13:29:20.134Z,50
2016-06-24T13:30:20.735Z,50
2016-06-24T13:31:20.130Z,50
2016-06-24T13:32:19.582Z,50
2016-06-24T13:33:19.567Z,50
2016-06-24T13:34:20.177Z,50
2016-06-24T13:35:19.619Z,50
2016-06-24T13:36:19.628Z,50
2016-06-24T13:37:20.213Z,45
2016-06-24T13:38:20.854Z,45
2016-06-24T13:39:20.257Z,45
2016-06-24T13:40:20.871Z,45
2016-06-24T13:41:19.673Z,45
2016-06-24T13:42:18.489Z,45
2016-06-24T13:43:19.715Z,50
2016-06-24T13:44:19.130Z,45
2016-06-24T13:45:19.750Z,45
2016-06-24T13:46:19.739Z,45
2016-06-24T13:47:20.350Z,45
2016-06-24T13:48:20.960Z,50
2016-06-24T13:49:19.170Z,50
2016-06-24T13:50:19.784Z,50
2016-06-24T13:51:19.798Z,50
2016-06-24T13:52:18.619Z,50
2016-06-24T13:53:19.816Z,50
2016-06-24T13:54:20.431Z,50
2016-06-24T13:55:20.426Z,45
2016-06-24T13:56:20.455Z,45
2016-06-24T13:57:19.290Z,45
2016-06-24T13:58:19.276Z,45
2016-06-24T13:59:19.284Z,45
2016-06-24T14:00:19.899Z,45
2016-06-24T14:01:19.947Z,45
2016-06-24T14:02:19.942Z,45
2016-06-24T14:03:18.764Z,45
2016-06-24T14:04:19.368Z,45
2016-06-24T14:05:19.962Z,45
2016-06-24T14:06:18.793Z,45
2016-06-24T14:07:20.625Z,45
2016-06-24T14:08:20.011Z,45
2016-06-24T14:09:19.422Z,45
2016-06-24T14:10:20.038Z,45
2016-06-24T14:11:20.635Z,45
2016-06-24T14:12:19.474Z,45
2016-06-24T14:13:20.704Z,45
2016-06-24T14:14:20.684Z,45
2016-06-24T14:15:20.681Z,45
2016-06-24T14:16:20.685Z,45
2016-06-24T14:17:20.110Z,45
2016-06-24T14:18:20.141Z,40
2016-06-24T14:19:19.553Z,40
2016-06-24T14:20:20.171Z,45
2016-06-24T14:21:21.418Z,45
2016-06-24T14:22:20.194Z,45
2016-06-24T14:23:20.812Z,45
2016-06-24T14:24:19.603Z,40
2016-06-24T14:25:20.833Z,40